sensor_id;sensor_type;location;lat;lon;timestamp;temperature;humidity
42663;DHT22;44330;51.360;6.686;2023-07-31T00:01:28;16.90;91.00
42663;DHT22;44330;51.360;6.686;2023-07-31T00:03:53;16.90;91.00
42663;DHT22;44330;51.360;6.686;2023-07-31T00:06:19;16.90;91.00
42663;DHT22;44330;51.360;6.686;2023-07-31T00:08:44;16.90;91.10
42663;DHT22;44330;51.360;6.686;2023-07-31T00:11:10;16.90;90.70
42663;DHT22;44330;51.360;6.686;2023-07-31T00:13:35;17.00;90.70
42663;DHT22;44330;51.360;6.686;2023-07-31T00:16:01;17.00;90.50
42663;DHT22;44330;51.360;6.686;2023-07-31T00:18:27;17.00;90.10
42663;DHT22;44330;51.360;6.686;2023-07-31T00:20:52;17.00;90.10
42663;DHT22;44330;51.360;6.686;2023-07-31T00:23:18;17.00;90.30
42663;DHT22;44330;51.360;6.686;2023-07-31T00:25:43;16.90;90.50
42663;DHT22;44330;51.360;6.686;2023-07-31T00:28:10;17.00;90.60
42663;DHT22;44330;51.360;6.686;2023-07-31T00:30:35;16.90;90.30
42663;DHT22;44330;51.360;6.686;2023-07-31T00:33:01;17.00;90.20
42663;DHT22;44330;51.360;6.686;2023-07-31T00:35:26;17.00;90.00
42663;DHT22;44330;51.360;6.686;2023-07-31T00:37:52;17.00;88.80
42663;DHT22;44330;51.360;6.686;2023-07-31T00:40:17;17.00;88.40
42663;DHT22;44330;51.360;6.686;2023-07-31T00:42:43;17.00;89.00
42663;DHT22;44330;51.360;6.686;2023-07-31T00:45:09;17.00;89.00
42663;DHT22;44330;51.360;6.686;2023-07-31T00:47:34;17.10;89.10
42663;DHT22;44330;51.360;6.686;2023-07-31T00:50:00;17.10;87.60
42663;DHT22;44330;51.360;6.686;2023-07-31T00:52:25;17.10;87.90
42663;DHT22;44330;51.360;6.686;2023-07-31T00:54:51;17.10;88.60
42663;DHT22;44330;51.360;6.686;2023-07-31T00:57:17;17.10;88.10
42663;DHT22;44330;51.360;6.686;2023-07-31T00:59:42;17.10;87.20
42663;DHT22;44330;51.360;6.686;2023-07-31T01:02:08;17.10;86.30
42663;DHT22;44330;51.360;6.686;2023-07-31T01:04:34;17.10;86.80
42663;DHT22;44330;51.360;6.686;2023-07-31T01:07:21;17.00;87.10
42663;DHT22;44330;51.360;6.686;2023-07-31T01:09:56;17.00;87.20
42663;DHT22;44330;51.360;6.686;2023-07-31T01:12:27;17.00;86.20
42663;DHT22;44330;51.360;6.686;2023-07-31T01:15:07;17.00;86.70
42663;DHT22;44330;51.360;6.686;2023-07-31T01:17:39;17.00;85.60
42663;DHT22;44330;51.360;6.686;2023-07-31T01:20:31;17.00;86.10
42663;DHT22;44330;51.360;6.686;2023-07-31T01:28:56;17.00;84.60
42663;DHT22;44330;51.360;6.686;2023-07-31T01:31:25;17.00;84.10
42663;DHT22;44330;51.360;6.686;2023-07-31T01:33:53;16.90;84.50
42663;DHT22;44330;51.360;6.686;2023-07-31T01:36:20;17.00;84.10
42663;DHT22;44330;51.360;6.686;2023-07-31T01:38:45;17.00;84.50
42663;DHT22;44330;51.360;6.686;2023-07-31T01:41:11;17.00;83.90
42663;DHT22;44330;51.360;6.686;2023-07-31T01:43:37;17.00;83.60
42663;DHT22;44330;51.360;6.686;2023-07-31T01:46:02;17.00;81.70
42663;DHT22;44330;51.360;6.686;2023-07-31T01:48:28;17.00;82.40
42663;DHT22;44330;51.360;6.686;2023-07-31T01:50:53;17.00;81.90
42663;DHT22;44330;51.360;6.686;2023-07-31T01:53:19;17.10;82.00
42663;DHT22;44330;51.360;6.686;2023-07-31T01:55:44;17.00;81.50
42663;DHT22;44330;51.360;6.686;2023-07-31T01:58:10;17.00;81.20
42663;DHT22;44330;51.360;6.686;2023-07-31T02:00:35;17.00;81.20
42663;DHT22;44330;51.360;6.686;2023-07-31T02:03:01;17.00;80.70
42663;DHT22;44330;51.360;6.686;2023-07-31T02:05:26;17.00;79.80
42663;DHT22;44330;51.360;6.686;2023-07-31T02:07:52;17.00;80.60
42663;DHT22;44330;51.360;6.686;2023-07-31T02:10:17;17.00;80.70
42663;DHT22;44330;51.360;6.686;2023-07-31T02:12:43;17.10;78.50
42663;DHT22;44330;51.360;6.686;2023-07-31T02:15:09;17.10;79.40
42663;DHT22;44330;51.360;6.686;2023-07-31T02:17:34;17.10;79.80
42663;DHT22;44330;51.360;6.686;2023-07-31T02:20:00;17.00;80.10
42663;DHT22;44330;51.360;6.686;2023-07-31T02:22:26;17.10;78.40
42663;DHT22;44330;51.360;6.686;2023-07-31T02:24:51;17.10;77.70
42663;DHT22;44330;51.360;6.686;2023-07-31T02:27:17;17.10;78.30
42663;DHT22;44330;51.360;6.686;2023-07-31T02:29:43;17.00;79.60
42663;DHT22;44330;51.360;6.686;2023-07-31T02:32:08;17.00;78.70
42663;DHT22;44330;51.360;6.686;2023-07-31T02:34:34;17.10;79.20
42663;DHT22;44330;51.360;6.686;2023-07-31T02:36:59;17.10;77.80
42663;DHT22;44330;51.360;6.686;2023-07-31T02:39:25;17.10;78.20
42663;DHT22;44330;51.360;6.686;2023-07-31T02:41:50;17.00;79.10
42663;DHT22;44330;51.360;6.686;2023-07-31T02:44:16;17.10;78.50
42663;DHT22;44330;51.360;6.686;2023-07-31T02:46:41;17.00;79.00
42663;DHT22;44330;51.360;6.686;2023-07-31T02:49:07;17.00;79.20
42663;DHT22;44330;51.360;6.686;2023-07-31T02:51:32;17.10;78.60
42663;DHT22;44330;51.360;6.686;2023-07-31T02:53:58;17.10;79.00
42663;DHT22;44330;51.360;6.686;2023-07-31T02:56:23;17.10;79.60
42663;DHT22;44330;51.360;6.686;2023-07-31T02:58:49;17.10;79.10
42663;DHT22;44330;51.360;6.686;2023-07-31T03:01:14;17.10;80.20
42663;DHT22;44330;51.360;6.686;2023-07-31T03:03:41;17.10;80.00
42663;DHT22;44330;51.360;6.686;2023-07-31T03:06:07;17.10;79.50
42663;DHT22;44330;51.360;6.686;2023-07-31T03:08:32;17.20;79.40
42663;DHT22;44330;51.360;6.686;2023-07-31T03:10:58;17.20;79.30
42663;DHT22;44330;51.360;6.686;2023-07-31T03:13:23;17.20;80.20
42663;DHT22;44330;51.360;6.686;2023-07-31T03:15:49;17.20;80.40
42663;DHT22;44330;51.360;6.686;2023-07-31T03:18:15;17.20;79.80
42663;DHT22;44330;51.360;6.686;2023-07-31T03:20:44;17.20;79.30
42663;DHT22;44330;51.360;6.686;2023-07-31T03:23:09;17.30;79.40
42663;DHT22;44330;51.360;6.686;2023-07-31T03:25:35;17.10;80.60
42663;DHT22;44330;51.360;6.686;2023-07-31T03:28:00;17.20;80.80
42663;DHT22;44330;51.360;6.686;2023-07-31T03:30:26;17.20;80.70
42663;DHT22;44330;51.360;6.686;2023-07-31T03:32:52;17.30;78.50
42663;DHT22;44330;51.360;6.686;2023-07-31T03:35:17;17.30;76.90
42663;DHT22;44330;51.360;6.686;2023-07-31T03:37:43;17.30;76.30
42663;DHT22;44330;51.360;6.686;2023-07-31T03:40:09;17.30;77.20
42663;DHT22;44330;51.360;6.686;2023-07-31T03:42:35;17.30;77.70
42663;DHT22;44330;51.360;6.686;2023-07-31T03:45:00;17.50;77.20
42663;DHT22;44330;51.360;6.686;2023-07-31T03:47:26;17.50;78.00
42663;DHT22;44330;51.360;6.686;2023-07-31T03:49:52;17.40;77.90
42663;DHT22;44330;51.360;6.686;2023-07-31T03:52:17;17.40;77.50
42663;DHT22;44330;51.360;6.686;2023-07-31T03:54:43;17.40;78.30
42663;DHT22;44330;51.360;6.686;2023-07-31T03:57:10;17.40;78.80
42663;DHT22;44330;51.360;6.686;2023-07-31T03:59:36;17.40;77.30
42663;DHT22;44330;51.360;6.686;2023-07-31T04:02:04;17.40;78.70
42663;DHT22;44330;51.360;6.686;2023-07-31T04:04:29;17.40;79.20
42663;DHT22;44330;51.360;6.686;2023-07-31T04:06:55;17.40;77.80
42663;DHT22;44330;51.360;6.686;2023-07-31T04:09:20;17.40;77.70
42663;DHT22;44330;51.360;6.686;2023-07-31T04:11:46;17.50;76.70
42663;DHT22;44330;51.360;6.686;2023-07-31T04:14:11;17.50;76.60
42663;DHT22;44330;51.360;6.686;2023-07-31T04:16:37;17.60;78.00
42663;DHT22;44330;51.360;6.686;2023-07-31T04:19:03;17.50;78.20
42663;DHT22;44330;51.360;6.686;2023-07-31T04:21:28;17.50;77.40
42663;DHT22;44330;51.360;6.686;2023-07-31T04:23:54;17.40;78.60
42663;DHT22;44330;51.360;6.686;2023-07-31T04:26:21;17.40;78.30
42663;DHT22;44330;51.360;6.686;2023-07-31T04:28:47;17.50;79.80
42663;DHT22;44330;51.360;6.686;2023-07-31T04:31:12;17.30;80.10
42663;DHT22;44330;51.360;6.686;2023-07-31T04:33:38;17.40;80.60
42663;DHT22;44330;51.360;6.686;2023-07-31T04:36:04;17.40;81.20
42663;DHT22;44330;51.360;6.686;2023-07-31T04:38:30;17.40;80.80
42663;DHT22;44330;51.360;6.686;2023-07-31T04:40:55;17.40;80.90
42663;DHT22;44330;51.360;6.686;2023-07-31T04:43:21;17.50;80.80
42663;DHT22;44330;51.360;6.686;2023-07-31T04:45:47;17.40;81.80
42663;DHT22;44330;51.360;6.686;2023-07-31T04:48:13;17.40;81.50
42663;DHT22;44330;51.360;6.686;2023-07-31T04:50:38;17.40;82.50
42663;DHT22;44330;51.360;6.686;2023-07-31T04:53:04;17.40;82.90
42663;DHT22;44330;51.360;6.686;2023-07-31T04:55:30;17.30;82.90
42663;DHT22;44330;51.360;6.686;2023-07-31T04:57:55;17.40;83.10
42663;DHT22;44330;51.360;6.686;2023-07-31T05:00:21;17.40;82.90
42663;DHT22;44330;51.360;6.686;2023-07-31T05:02:47;17.40;83.50
42663;DHT22;44330;51.360;6.686;2023-07-31T05:05:12;17.50;81.50
42663;DHT22;44330;51.360;6.686;2023-07-31T05:07:38;17.50;81.60
42663;DHT22;44330;51.360;6.686;2023-07-31T05:10:04;17.50;82.40
42663;DHT22;44330;51.360;6.686;2023-07-31T05:12:30;17.50;82.30
42663;DHT22;44330;51.360;6.686;2023-07-31T05:14:55;17.60;81.60
42663;DHT22;44330;51.360;6.686;2023-07-31T05:17:21;17.60;81.50
42663;DHT22;44330;51.360;6.686;2023-07-31T05:19:46;17.70;80.40
42663;DHT22;44330;51.360;6.686;2023-07-31T05:22:12;17.60;80.50
42663;DHT22;44330;51.360;6.686;2023-07-31T05:24:38;17.70;81.00
42663;DHT22;44330;51.360;6.686;2023-07-31T05:27:03;17.60;81.10
42663;DHT22;44330;51.360;6.686;2023-07-31T05:29:29;17.60;81.80
42663;DHT22;44330;51.360;6.686;2023-07-31T05:31:55;17.60;82.00
42663;DHT22;44330;51.360;6.686;2023-07-31T05:34:21;17.60;80.70
42663;DHT22;44330;51.360;6.686;2023-07-31T05:36:47;17.70;78.80
42663;DHT22;44330;51.360;6.686;2023-07-31T05:39:13;17.80;79.40
42663;DHT22;44330;51.360;6.686;2023-07-31T05:41:39;17.70;80.30
42663;DHT22;44330;51.360;6.686;2023-07-31T05:44:04;17.60;81.30
42663;DHT22;44330;51.360;6.686;2023-07-31T05:46:30;17.70;79.30
42663;DHT22;44330;51.360;6.686;2023-07-31T05:48:56;17.70;79.00
42663;DHT22;44330;51.360;6.686;2023-07-31T05:51:22;17.80;78.50
42663;DHT22;44330;51.360;6.686;2023-07-31T05:53:47;17.80;79.00
42663;DHT22;44330;51.360;6.686;2023-07-31T05:56:13;17.80;78.00
42663;DHT22;44330;51.360;6.686;2023-07-31T05:58:38;17.80;79.10
42663;DHT22;44330;51.360;6.686;2023-07-31T06:01:04;17.80;78.40
42663;DHT22;44330;51.360;6.686;2023-07-31T06:03:30;17.90;77.60
42663;DHT22;44330;51.360;6.686;2023-07-31T06:05:56;17.90;77.70
42663;DHT22;44330;51.360;6.686;2023-07-31T06:08:21;17.90;77.40
42663;DHT22;44330;51.360;6.686;2023-07-31T06:10:47;17.90;77.80
42663;DHT22;44330;51.360;6.686;2023-07-31T06:13:12;17.90;78.90
42663;DHT22;44330;51.360;6.686;2023-07-31T06:15:38;17.80;79.70
42663;DHT22;44330;51.360;6.686;2023-07-31T06:18:04;17.90;79.90
42663;DHT22;44330;51.360;6.686;2023-07-31T06:20:33;17.80;81.90
42663;DHT22;44330;51.360;6.686;2023-07-31T06:22:59;17.70;82.80
42663;DHT22;44330;51.360;6.686;2023-07-31T06:25:25;17.80;83.40
42663;DHT22;44330;51.360;6.686;2023-07-31T06:27:51;17.60;84.00
42663;DHT22;44330;51.360;6.686;2023-07-31T06:30:16;17.70;84.70
42663;DHT22;44330;51.360;6.686;2023-07-31T06:32:42;17.60;85.90
42663;DHT22;44330;51.360;6.686;2023-07-31T06:35:08;17.50;86.10
42663;DHT22;44330;51.360;6.686;2023-07-31T06:37:34;17.60;87.10
42663;DHT22;44330;51.360;6.686;2023-07-31T06:40:00;17.50;87.50
42663;DHT22;44330;51.360;6.686;2023-07-31T06:42:25;17.50;87.50
42663;DHT22;44330;51.360;6.686;2023-07-31T06:44:51;17.60;87.10
42663;DHT22;44330;51.360;6.686;2023-07-31T06:52:21;17.60;87.20
42663;DHT22;44330;51.360;6.686;2023-07-31T06:55:03;17.60;87.60
42663;DHT22;44330;51.360;6.686;2023-07-31T06:57:30;17.60;87.50
42663;DHT22;44330;51.360;6.686;2023-07-31T06:59:55;17.60;87.50
42663;DHT22;44330;51.360;6.686;2023-07-31T07:02:21;17.60;88.30
42663;DHT22;44330;51.360;6.686;2023-07-31T07:04:46;17.60;88.10
42663;DHT22;44330;51.360;6.686;2023-07-31T07:07:12;17.60;88.60
42663;DHT22;44330;51.360;6.686;2023-07-31T07:09:37;17.60;89.50
42663;DHT22;44330;51.360;6.686;2023-07-31T07:12:03;17.70;89.50
42663;DHT22;44330;51.360;6.686;2023-07-31T07:14:29;17.50;89.20
42663;DHT22;44330;51.360;6.686;2023-07-31T07:16:54;17.60;89.70
42663;DHT22;44330;51.360;6.686;2023-07-31T07:19:20;17.50;90.20
42663;DHT22;44330;51.360;6.686;2023-07-31T07:21:46;17.40;90.40
42663;DHT22;44330;51.360;6.686;2023-07-31T07:24:12;17.40;90.40
42663;DHT22;44330;51.360;6.686;2023-07-31T07:26:37;17.30;90.80
42663;DHT22;44330;51.360;6.686;2023-07-31T07:29:03;17.40;90.90
42663;DHT22;44330;51.360;6.686;2023-07-31T07:31:29;17.40;91.00
42663;DHT22;44330;51.360;6.686;2023-07-31T07:33:55;17.40;90.90
42663;DHT22;44330;51.360;6.686;2023-07-31T07:36:22;17.40;90.70
42663;DHT22;44330;51.360;6.686;2023-07-31T07:38:48;17.30;91.10
42663;DHT22;44330;51.360;6.686;2023-07-31T07:41:13;17.30;91.20
42663;DHT22;44330;51.360;6.686;2023-07-31T07:43:39;17.30;91.10
42663;DHT22;44330;51.360;6.686;2023-07-31T07:46:05;17.30;91.00
42663;DHT22;44330;51.360;6.686;2023-07-31T07:48:30;17.30;91.00
42663;DHT22;44330;51.360;6.686;2023-07-31T07:50:56;17.30;90.70
42663;DHT22;44330;51.360;6.686;2023-07-31T07:53:21;17.30;90.80
42663;DHT22;44330;51.360;6.686;2023-07-31T07:55:47;17.20;91.10
42663;DHT22;44330;51.360;6.686;2023-07-31T07:58:12;17.30;91.30
42663;DHT22;44330;51.360;6.686;2023-07-31T08:00:38;17.30;91.20
42663;DHT22;44330;51.360;6.686;2023-07-31T08:03:35;17.30;90.90
42663;DHT22;44330;51.360;6.686;2023-07-31T08:06:01;17.30;90.90
42663;DHT22;44330;51.360;6.686;2023-07-31T08:08:28;17.30;90.70
42663;DHT22;44330;51.360;6.686;2023-07-31T08:10:54;17.30;90.20
42663;DHT22;44330;51.360;6.686;2023-07-31T08:13:19;17.30;90.20
42663;DHT22;44330;51.360;6.686;2023-07-31T08:15:45;17.40;90.20
42663;DHT22;44330;51.360;6.686;2023-07-31T08:18:11;17.30;90.40
42663;DHT22;44330;51.360;6.686;2023-07-31T08:20:37;17.40;89.10
42663;DHT22;44330;51.360;6.686;2023-07-31T08:23:03;17.30;89.50
42663;DHT22;44330;51.360;6.686;2023-07-31T08:25:29;17.40;89.90
42663;DHT22;44330;51.360;6.686;2023-07-31T08:27:55;17.40;89.90
42663;DHT22;44330;51.360;6.686;2023-07-31T08:30:21;17.40;89.00
42663;DHT22;44330;51.360;6.686;2023-07-31T08:32:46;17.30;89.50
42663;DHT22;44330;51.360;6.686;2023-07-31T08:35:12;17.30;89.30
42663;DHT22;44330;51.360;6.686;2023-07-31T08:37:39;17.30;87.80
42663;DHT22;44330;51.360;6.686;2023-07-31T08:40:06;17.30;88.40
42663;DHT22;44330;51.360;6.686;2023-07-31T08:42:32;17.30;90.30
42663;DHT22;44330;51.360;6.686;2023-07-31T08:44:59;17.30;90.20
42663;DHT22;44330;51.360;6.686;2023-07-31T08:47:25;17.30;88.40
42663;DHT22;44330;51.360;6.686;2023-07-31T08:49:52;17.30;88.50
42663;DHT22;44330;51.360;6.686;2023-07-31T08:52:19;17.30;87.40
42663;DHT22;44330;51.360;6.686;2023-07-31T08:54:45;17.30;86.50
42663;DHT22;44330;51.360;6.686;2023-07-31T08:57:11;17.30;87.10
42663;DHT22;44330;51.360;6.686;2023-07-31T08:59:39;17.30;87.40
42663;DHT22;44330;51.360;6.686;2023-07-31T09:02:08;17.30;87.10
42663;DHT22;44330;51.360;6.686;2023-07-31T09:04:34;17.40;87.20
42663;DHT22;44330;51.360;6.686;2023-07-31T09:07:02;17.40;89.00
42663;DHT22;44330;51.360;6.686;2023-07-31T09:09:32;17.40;89.90
42663;DHT22;44330;51.360;6.686;2023-07-31T09:11:59;17.40;91.00
42663;DHT22;44330;51.360;6.686;2023-07-31T09:14:25;17.40;90.90
42663;DHT22;44330;51.360;6.686;2023-07-31T09:16:55;17.40;90.60
42663;DHT22;44330;51.360;6.686;2023-07-31T09:19:33;17.40;90.70
42663;DHT22;44330;51.360;6.686;2023-07-31T09:21:59;17.40;90.90
42663;DHT22;44330;51.360;6.686;2023-07-31T09:24:31;17.40;91.20
42663;DHT22;44330;51.360;6.686;2023-07-31T09:26:58;17.50;91.30
42663;DHT22;44330;51.360;6.686;2023-07-31T09:29:25;17.50;91.40
42663;DHT22;44330;51.360;6.686;2023-07-31T09:31:52;17.50;91.60
42663;DHT22;44330;51.360;6.686;2023-07-31T09:34:18;17.50;91.80
42663;DHT22;44330;51.360;6.686;2023-07-31T09:36:49;17.60;91.70
42663;DHT22;44330;51.360;6.686;2023-07-31T09:39:16;17.60;91.60
42663;DHT22;44330;51.360;6.686;2023-07-31T09:41:44;17.60;91.90
42663;DHT22;44330;51.360;6.686;2023-07-31T09:44:11;17.60;91.70
42663;DHT22;44330;51.360;6.686;2023-07-31T09:46:38;17.70;91.70
42663;DHT22;44330;51.360;6.686;2023-07-31T09:49:08;17.70;91.60
42663;DHT22;44330;51.360;6.686;2023-07-31T09:51:39;17.80;91.60
42663;DHT22;44330;51.360;6.686;2023-07-31T09:54:15;17.70;91.40
42663;DHT22;44330;51.360;6.686;2023-07-31T09:56:48;17.80;91.80
42663;DHT22;44330;51.360;6.686;2023-07-31T09:59:18;17.80;91.70
42663;DHT22;44330;51.360;6.686;2023-07-31T10:01:45;17.90;91.50
42663;DHT22;44330;51.360;6.686;2023-07-31T10:04:12;17.80;91.00
42663;DHT22;44330;51.360;6.686;2023-07-31T10:06:39;17.70;90.80
42663;DHT22;44330;51.360;6.686;2023-07-31T10:09:07;17.70;91.20
42663;DHT22;44330;51.360;6.686;2023-07-31T10:11:41;17.70;91.30
42663;DHT22;44330;51.360;6.686;2023-07-31T10:14:08;17.80;91.50
42663;DHT22;44330;51.360;6.686;2023-07-31T10:16:37;17.70;91.40
42663;DHT22;44330;51.360;6.686;2023-07-31T10:19:03;17.80;90.50
42663;DHT22;44330;51.360;6.686;2023-07-31T10:21:31;17.70;90.30
42663;DHT22;44330;51.360;6.686;2023-07-31T10:24:05;17.70;90.40
42663;DHT22;44330;51.360;6.686;2023-07-31T10:26:32;17.70;90.90
42663;DHT22;44330;51.360;6.686;2023-07-31T10:28:59;17.70;91.00
42663;DHT22;44330;51.360;6.686;2023-07-31T10:31:29;17.80;91.10
42663;DHT22;44330;51.360;6.686;2023-07-31T10:33:59;17.90;90.80
42663;DHT22;44330;51.360;6.686;2023-07-31T10:36:26;17.90;91.00
42663;DHT22;44330;51.360;6.686;2023-07-31T10:38:52;18.00;90.90
42663;DHT22;44330;51.360;6.686;2023-07-31T10:41:18;18.00;90.10
42663;DHT22;44330;51.360;6.686;2023-07-31T10:43:46;18.10;89.80
42663;DHT22;44330;51.360;6.686;2023-07-31T10:46:13;18.20;88.50
42663;DHT22;44330;51.360;6.686;2023-07-31T10:48:40;18.20;90.10
42663;DHT22;44330;51.360;6.686;2023-07-31T10:51:13;18.30;90.10
42663;DHT22;44330;51.360;6.686;2023-07-31T10:53:39;18.30;88.10
42663;DHT22;44330;51.360;6.686;2023-07-31T10:56:08;18.40;85.90
42663;DHT22;44330;51.360;6.686;2023-07-31T10:58:34;18.50;87.40
42663;DHT22;44330;51.360;6.686;2023-07-31T11:01:03;18.50;86.50
42663;DHT22;44330;51.360;6.686;2023-07-31T11:03:49;18.50;85.50
42663;DHT22;44330;51.360;6.686;2023-07-31T11:06:18;18.50;85.70
42663;DHT22;44330;51.360;6.686;2023-07-31T11:08:51;18.50;85.60
42663;DHT22;44330;51.360;6.686;2023-07-31T11:11:17;18.40;86.30
42663;DHT22;44330;51.360;6.686;2023-07-31T11:16:15;18.50;86.70
42663;DHT22;44330;51.360;6.686;2023-07-31T11:18:42;18.60;86.20
42663;DHT22;44330;51.360;6.686;2023-07-31T11:21:16;18.60;85.00
42663;DHT22;44330;51.360;6.686;2023-07-31T11:26:52;18.70;83.30
42663;DHT22;44330;51.360;6.686;2023-07-31T11:29:21;18.70;83.30
42663;DHT22;44330;51.360;6.686;2023-07-31T11:31:52;18.80;82.90
42663;DHT22;44330;51.360;6.686;2023-07-31T11:34:17;18.70;84.60
42663;DHT22;44330;51.360;6.686;2023-07-31T11:36:55;18.80;82.80
42663;DHT22;44330;51.360;6.686;2023-07-31T11:39:24;18.70;84.30
42663;DHT22;44330;51.360;6.686;2023-07-31T11:41:49;18.80;82.90
42663;DHT22;44330;51.360;6.686;2023-07-31T11:44:15;18.70;83.30
42663;DHT22;44330;51.360;6.686;2023-07-31T11:46:40;18.70;84.60
42663;DHT22;44330;51.360;6.686;2023-07-31T11:49:06;18.70;82.20
42663;DHT22;44330;51.360;6.686;2023-07-31T11:51:31;18.70;83.40
42663;DHT22;44330;51.360;6.686;2023-07-31T11:53:59;18.70;83.20
42663;DHT22;44330;51.360;6.686;2023-07-31T11:56:25;18.70;82.90
42663;DHT22;44330;51.360;6.686;2023-07-31T11:58:59;18.70;84.00
42663;DHT22;44330;51.360;6.686;2023-07-31T12:01:26;18.70;83.40
42663;DHT22;44330;51.360;6.686;2023-07-31T12:03:53;18.70;81.90
42663;DHT22;44330;51.360;6.686;2023-07-31T12:06:19;18.70;83.30
42663;DHT22;44330;51.360;6.686;2023-07-31T12:08:46;18.70;80.90
42663;DHT22;44330;51.360;6.686;2023-07-31T12:11:12;18.60;80.30
42663;DHT22;44330;51.360;6.686;2023-07-31T12:13:40;18.70;79.60
42663;DHT22;44330;51.360;6.686;2023-07-31T12:16:06;18.80;79.90
42663;DHT22;44330;51.360;6.686;2023-07-31T12:18:36;18.60;79.60
42663;DHT22;44330;51.360;6.686;2023-07-31T12:21:04;18.70;79.20
42663;DHT22;44330;51.360;6.686;2023-07-31T12:23:32;18.70;80.30
42663;DHT22;44330;51.360;6.686;2023-07-31T12:26:07;18.80;80.00
42663;DHT22;44330;51.360;6.686;2023-07-31T12:28:45;18.80;80.00
42663;DHT22;44330;51.360;6.686;2023-07-31T12:31:13;18.80;79.30
42663;DHT22;44330;51.360;6.686;2023-07-31T12:33:40;18.90;81.30
42663;DHT22;44330;51.360;6.686;2023-07-31T12:36:09;18.90;79.70
42663;DHT22;44330;51.360;6.686;2023-07-31T12:38:57;18.80;79.50
42663;DHT22;44330;51.360;6.686;2023-07-31T12:41:24;18.80;80.40
42663;DHT22;44330;51.360;6.686;2023-07-31T12:43:49;18.80;81.20
42663;DHT22;44330;51.360;6.686;2023-07-31T12:46:15;18.80;81.80
42663;DHT22;44330;51.360;6.686;2023-07-31T12:48:42;18.80;83.00
42663;DHT22;44330;51.360;6.686;2023-07-31T12:51:07;18.80;83.50
42663;DHT22;44330;51.360;6.686;2023-07-31T12:53:33;18.80;83.00
42663;DHT22;44330;51.360;6.686;2023-07-31T12:55:59;18.80;80.60
42663;DHT22;44330;51.360;6.686;2023-07-31T12:58:25;18.80;82.70
42663;DHT22;44330;51.360;6.686;2023-07-31T13:00:51;18.80;84.00
42663;DHT22;44330;51.360;6.686;2023-07-31T13:03:16;18.90;84.70
42663;DHT22;44330;51.360;6.686;2023-07-31T13:05:42;18.90;80.10
42663;DHT22;44330;51.360;6.686;2023-07-31T13:08:07;18.90;83.00
42663;DHT22;44330;51.360;6.686;2023-07-31T13:10:33;18.90;83.90
42663;DHT22;44330;51.360;6.686;2023-07-31T13:12:58;19.00;83.40
42663;DHT22;44330;51.360;6.686;2023-07-31T13:15:24;19.20;81.90
42663;DHT22;44330;51.360;6.686;2023-07-31T13:17:50;19.20;81.60
42663;DHT22;44330;51.360;6.686;2023-07-31T13:20:15;19.30;80.60
42663;DHT22;44330;51.360;6.686;2023-07-31T13:22:41;19.30;79.10
42663;DHT22;44330;51.360;6.686;2023-07-31T13:25:07;19.40;78.60
42663;DHT22;44330;51.360;6.686;2023-07-31T13:27:33;19.40;79.70
42663;DHT22;44330;51.360;6.686;2023-07-31T13:29:59;19.30;81.40
42663;DHT22;44330;51.360;6.686;2023-07-31T13:32:24;19.30;79.90
42663;DHT22;44330;51.360;6.686;2023-07-31T13:34:51;19.40;79.90
42663;DHT22;44330;51.360;6.686;2023-07-31T13:37:16;19.40;79.50
42663;DHT22;44330;51.360;6.686;2023-07-31T13:39:42;19.60;78.60
42663;DHT22;44330;51.360;6.686;2023-07-31T13:42:09;19.60;79.90
42663;DHT22;44330;51.360;6.686;2023-07-31T13:44:38;19.60;78.90
42663;DHT22;44330;51.360;6.686;2023-07-31T13:47:03;19.70;80.10
42663;DHT22;44330;51.360;6.686;2023-07-31T13:49:29;19.80;78.80
42663;DHT22;44330;51.360;6.686;2023-07-31T13:51:56;19.80;76.10
42663;DHT22;44330;51.360;6.686;2023-07-31T13:54:25;19.90;78.10
42663;DHT22;44330;51.360;6.686;2023-07-31T13:56:51;19.90;77.80
42663;DHT22;44330;51.360;6.686;2023-07-31T13:59:17;19.90;69.70
42663;DHT22;44330;51.360;6.686;2023-07-31T14:01:43;20.10;71.60
42663;DHT22;44330;51.360;6.686;2023-07-31T14:04:09;20.00;71.40
42663;DHT22;44330;51.360;6.686;2023-07-31T14:06:35;20.00;70.20
42663;DHT22;44330;51.360;6.686;2023-07-31T14:09:01;20.20;64.60
42663;DHT22;44330;51.360;6.686;2023-07-31T14:11:26;20.10;66.10
42663;DHT22;44330;51.360;6.686;2023-07-31T14:13:52;20.10;65.20
42663;DHT22;44330;51.360;6.686;2023-07-31T14:16:17;20.10;63.70
42663;DHT22;44330;51.360;6.686;2023-07-31T14:18:43;20.00;61.00
42663;DHT22;44330;51.360;6.686;2023-07-31T14:21:11;20.00;63.10
42663;DHT22;44330;51.360;6.686;2023-07-31T14:23:36;20.00;63.20
42663;DHT22;44330;51.360;6.686;2023-07-31T14:26:02;20.00;65.10
42663;DHT22;44330;51.360;6.686;2023-07-31T14:28:29;20.00;65.80
42663;DHT22;44330;51.360;6.686;2023-07-31T14:30:54;20.00;65.00
42663;DHT22;44330;51.360;6.686;2023-07-31T14:33:20;20.00;65.70
42663;DHT22;44330;51.360;6.686;2023-07-31T14:35:46;19.90;66.60
42663;DHT22;44330;51.360;6.686;2023-07-31T14:38:11;19.90;67.30
42663;DHT22;44330;51.360;6.686;2023-07-31T14:40:37;19.80;71.10
42663;DHT22;44330;51.360;6.686;2023-07-31T14:43:04;19.70;73.50
42663;DHT22;44330;51.360;6.686;2023-07-31T14:45:30;19.70;71.10
42663;DHT22;44330;51.360;6.686;2023-07-31T14:47:56;19.70;70.80
42663;DHT22;44330;51.360;6.686;2023-07-31T14:50:22;19.60;71.80
42663;DHT22;44330;51.360;6.686;2023-07-31T14:53:00;19.60;67.80
42663;DHT22;44330;51.360;6.686;2023-07-31T14:55:26;19.60;66.50
42663;DHT22;44330;51.360;6.686;2023-07-31T14:58:00;19.60;70.90
42663;DHT22;44330;51.360;6.686;2023-07-31T15:00:29;19.60;70.90
42663;DHT22;44330;51.360;6.686;2023-07-31T15:02:55;19.50;71.10
42663;DHT22;44330;51.360;6.686;2023-07-31T15:05:21;19.50;72.40
42663;DHT22;44330;51.360;6.686;2023-07-31T15:07:47;19.60;70.20
42663;DHT22;44330;51.360;6.686;2023-07-31T15:10:13;19.60;66.60
42663;DHT22;44330;51.360;6.686;2023-07-31T15:12:40;19.60;63.60
42663;DHT22;44330;51.360;6.686;2023-07-31T15:15:07;19.70;65.80
42663;DHT22;44330;51.360;6.686;2023-07-31T15:17:33;19.60;66.40
42663;DHT22;44330;51.360;6.686;2023-07-31T15:19:58;19.60;64.30
42663;DHT22;44330;51.360;6.686;2023-07-31T15:22:24;19.70;62.80
42663;DHT22;44330;51.360;6.686;2023-07-31T15:24:50;19.70;61.80
42663;DHT22;44330;51.360;6.686;2023-07-31T15:27:15;19.80;61.70
42663;DHT22;44330;51.360;6.686;2023-07-31T15:29:41;19.70;62.80
42663;DHT22;44330;51.360;6.686;2023-07-31T15:32:07;19.70;61.60
42663;DHT22;44330;51.360;6.686;2023-07-31T15:34:32;19.70;62.40
42663;DHT22;44330;51.360;6.686;2023-07-31T15:36:58;19.70;61.10
42663;DHT22;44330;51.360;6.686;2023-07-31T15:39:24;19.80;61.10
42663;DHT22;44330;51.360;6.686;2023-07-31T15:41:49;19.80;62.50
42663;DHT22;44330;51.360;6.686;2023-07-31T15:44:15;19.80;60.20